Time;durP1;ratioP1;P1;durP2;ratioP2;P2;SDS_P1;SDS_P2;PMS_P1;PMS_P2;Temp;Humidity;BMP_temperature;BMP_pressure;BME280_temperature;BME280_humidity;BME280_pressure;Samples;Min_cycle;Max_cycle;Signal;HPM_P1;HPM_P2
2020/12/18 00:01:28;;;;;;;11.07;5.30;;;7.50;99.90;;;;;;5057852;28;20260;-77
2020/12/18 00:03:55;;;;;;;7.60;4.03;;;7.50;99.90;;;;;;5064656;28;20271;-77
2020/12/18 00:06:24;;;;;;;9.73;4.53;;;7.50;99.90;;;;;;5062242;28;20248;-77
2020/12/18 00:08:51;;;;;;;8.97;5.17;;;7.50;99.90;;;;;;5061009;28;20225;-76
2020/12/18 00:11:25;;;;;;;12.13;5.07;;;7.50;99.90;;;;;;5081563;28;20261;-78
2020/12/18 00:13:53;;;;;;;9.43;4.43;;;7.50;99.90;;;;;;5058578;28;20237;-78
2020/12/18 00:16:20;;;;;;;6.50;4.20;;;7.50;99.90;;;;;;5048817;28;20241;-78
2020/12/18 00:18:47;;;;;;;16.10;4.70;;;7.50;99.90;;;;;;5065114;28;20261;-78
2020/12/18 00:21:21;;;;;;;6.60;4.23;;;7.50;99.90;;;;;;5068308;28;20232;-78
2020/12/18 00:23:48;;;;;;;9.60;4.70;;;7.40;99.90;;;;;;5070335;28;20201;-77
2020/12/18 00:26:15;;;;;;;6.33;4.40;;;7.50;99.90;;;;;;5069716;28;20516;-77
2020/12/18 00:28:42;;;;;;;9.13;4.27;;;7.50;99.90;;;;;;5071156;28;20533;-80
2020/12/18 00:31:08;;;;;;;5.77;4.30;;;7.40;99.90;;;;;;5069471;28;20639;-77
2020/12/18 00:33:35;;;;;;;6.33;4.07;;;7.40;99.90;;;;;;5065737;28;20192;-76
2020/12/18 00:36:03;;;;;;;9.30;4.20;;;7.40;99.90;;;;;;5067799;28;20644;-76
2020/12/18 00:38:30;;;;;;;5.97;3.77;;;7.40;99.90;;;;;;5056269;28;20287;-77
2020/12/18 00:40:56;;;;;;;9.13;4.23;;;7.40;99.90;;;;;;5058021;28;20193;-78
2020/12/18 00:43:23;;;;;;;8.23;3.97;;;7.40;99.90;;;;;;5065260;28;20238;-77
2020/12/18 00:45:49;;;;;;;7.80;4.33;;;7.40;99.90;;;;;;5050963;28;20311;-78
2020/12/18 00:48:15;;;;;;;11.00;4.63;;;7.40;99.90;;;;;;5060436;28;20206;-78
2020/12/18 00:50:42;;;;;;;8.00;3.80;;;7.40;99.90;;;;;;5063927;28;20641;-78
2020/12/18 00:53:08;;;;;;;9.50;5.37;;;7.40;99.90;;;;;;5047808;28;20723;-78
2020/12/18 00:55:37;;;;;;;8.33;4.33;;;7.40;99.90;;;;;;5079602;28;20212;-78
2020/12/18 00:58:03;;;;;;;11.43;4.20;;;7.40;99.90;;;;;;5064387;28;20650;-77
2020/12/18 01:00:30;;;;;;;8.77;3.87;;;7.40;99.90;;;;;;5061399;28;20270;-78
2020/12/18 01:02:56;;;;;;;10.73;4.37;;;7.40;99.90;;;;;;5060586;28;20823;-78
2020/12/18 01:05:22;;;;;;;10.17;4.77;;;7.40;99.90;;;;;;5057975;28;20207;-77
2020/12/18 01:07:49;;;;;;;10.70;4.93;;;7.40;99.90;;;;;;5047022;28;20250;-78
2020/12/18 01:10:15;;;;;;;9.70;3.93;;;7.40;99.90;;;;;;5057489;28;20251;-77
2020/12/18 01:12:41;;;;;;;10.03;4.53;;;7.30;99.90;;;;;;5049105;28;20203;-78
2020/12/18 01:15:08;;;;;;;7.60;4.73;;;7.30;99.90;;;;;;5062441;28;20270;-78
2020/12/18 01:17:34;;;;;;;12.63;4.90;;;7.30;99.90;;;;;;5048822;28;20309;-78
2020/12/18 01:20:00;;;;;;;6.70;4.43;;;7.30;99.90;;;;;;5033976;28;20230;-79
2020/12/18 01:22:27;;;;;;;9.50;4.10;;;7.40;99.90;;;;;;5049524;28;20853;-78
2020/12/18 01:24:53;;;;;;;8.33;4.27;;;7.40;99.90;;;;;;5060756;28;20231;-78
2020/12/18 01:27:20;;;;;;;7.93;4.47;;;7.40;99.90;;;;;;5063167;28;20210;-78
2020/12/18 01:29:46;;;;;;;8.40;4.77;;;7.30;99.90;;;;;;5053162;28;20206;-76
2020/12/18 01:32:12;;;;;;;7.70;4.03;;;7.40;99.90;;;;;;5068135;28;20211;-77
2020/12/18 01:34:39;;;;;;;10.17;4.37;;;7.40;99.90;;;;;;5070212;28;20300;-78
2020/12/18 01:37:05;;;;;;;7.93;4.43;;;7.40;99.90;;;;;;5067340;28;20261;-77
2020/12/18 01:39:31;;;;;;;8.83;4.47;;;7.40;99.90;;;;;;5048431;28;20308;-77
2020/12/18 01:41:58;;;;;;;8.97;4.13;;;7.40;99.90;;;;;;5045456;28;20218;-78
2020/12/18 01:44:24;;;;;;;7.30;3.67;;;7.30;99.90;;;;;;5046762;28;20281;-77
2020/12/18 01:46:52;;;;;;;8.40;4.23;;;7.40;99.90;;;;;;5067065;28;20623;-78
2020/12/18 01:49:19;;;;;;;11.67;4.80;;;7.30;99.90;;;;;;5065789;28;20201;-77
2020/12/18 01:51:49;;;;;;;8.47;4.43;;;7.40;99.90;;;;;;5077532;28;20224;-77
2020/12/18 01:54:19;;;;;;;8.50;3.60;;;7.30;99.90;;;;;;5059083;28;20211;-77
2020/12/18 01:56:47;;;;;;;10.20;4.10;;;7.30;99.90;;;;;;5051331;28;20311;-76
2020/12/18 01:59:14;;;;;;;12.27;4.40;;;7.30;99.90;;;;;;5064180;28;20226;-77
2020/12/18 02:01:41;;;;;;;8.07;4.53;;;7.30;99.90;;;;;;5065718;28;20262;-76
2020/12/18 02:04:08;;;;;;;10.23;4.10;;;7.40;99.90;;;;;;5050459;28;20286;-77
2020/12/18 02:06:37;;;;;;;7.63;4.23;;;7.40;99.90;;;;;;5067777;28;20204;-76
2020/12/18 02:09:05;;;;;;;7.47;4.13;;;7.30;99.90;;;;;;5065985;28;20246;-78
2020/12/18 02:11:32;;;;;;;12.20;4.60;;;7.30;99.90;;;;;;5064299;28;20233;-76
2020/12/18 02:13:58;;;;;;;15.30;4.43;;;7.20;99.90;;;;;;5065548;28;20346;-76
2020/12/18 02:16:25;;;;;;;9.47;4.13;;;7.30;99.90;;;;;;5063082;28;20323;-77
2020/12/18 02:18:51;;;;;;;11.43;4.50;;;7.30;99.90;;;;;;5064312;28;20408;-76
2020/12/18 02:21:18;;;;;;;12.33;4.60;;;7.30;99.90;;;;;;5049028;28;20220;-77
2020/12/18 02:23:48;;;;;;;9.47;4.10;;;7.30;99.90;;;;;;5061467;28;20200;-76
2020/12/18 02:26:16;;;;;;;8.80;4.70;;;7.20;99.90;;;;;;5068643;28;20208;-77
2020/12/18 02:28:45;;;;;;;4.97;3.60;;;7.20;99.90;;;;;;5087146;28;20292;-78
2020/12/18 02:31:13;;;;;;;10.17;4.40;;;7.20;99.90;;;;;;5070218;28;20280;-78
2020/12/18 02:33:41;;;;;;;8.93;4.23;;;7.20;99.90;;;;;;5083915;28;20285;-78
2020/12/18 02:36:07;;;;;;;7.27;3.80;;;7.10;99.90;;;;;;5069220;28;20545;-78
2020/12/18 02:38:34;;;;;;;10.90;4.97;;;7.20;99.90;;;;;;5068269;28;21020;-77
2020/12/18 02:41:01;;;;;;;8.47;4.37;;;7.20;99.90;;;;;;5067711;28;20252;-77
2020/12/18 02:43:28;;;;;;;6.03;4.00;;;7.10;99.90;;;;;;5068598;28;20262;-77
2020/12/18 02:45:55;;;;;;;5.60;3.57;;;7.10;99.90;;;;;;5071473;28;20198;-78
2020/12/18 02:48:21;;;;;;;8.63;4.20;;;7.10;99.90;;;;;;5086767;28;20258;-77
2020/12/18 02:50:49;;;;;;;6.70;4.17;;;7.00;99.90;;;;;;5070184;28;20206;-78
2020/12/18 02:53:16;;;;;;;8.60;4.27;;;7.00;99.90;;;;;;5050781;28;20197;-78
2020/12/18 02:55:44;;;;;;;11.63;4.47;;;7.00;99.90;;;;;;5062162;28;20299;-76
2020/12/18 02:58:11;;;;;;;9.80;4.67;;;7.00;99.90;;;;;;5084942;28;20596;-79
2020/12/18 03:00:37;;;;;;;10.63;4.13;;;7.00;99.90;;;;;;5066277;28;20309;-78
2020/12/18 03:03:04;;;;;;;7.33;3.70;;;7.00;99.90;;;;;;5067572;28;20211;-78
2020/12/18 03:05:31;;;;;;;8.27;3.87;;;6.90;99.90;;;;;;5052432;28;20261;-78
2020/12/18 03:07:57;;;;;;;8.67;4.20;;;6.90;99.90;;;;;;5062576;28;20377;-76
2020/12/18 03:10:24;;;;;;;9.03;3.40;;;6.90;99.90;;;;;;5065731;28;20614;-77
2020/12/18 03:12:51;;;;;;;9.10;4.07;;;6.90;99.90;;;;;;5065457;28;20229;-78
2020/12/18 03:15:17;;;;;;;5.70;3.63;;;6.90;99.90;;;;;;5085470;28;20215;-76
2020/12/18 03:17:44;;;;;;;7.30;4.27;;;6.90;99.90;;;;;;5079987;28;20595;-77
2020/12/18 03:20:10;;;;;;;6.30;3.77;;;6.90;99.90;;;;;;5052695;28;20589;-77
2020/12/18 03:22:42;;;;;;;9.50;4.13;;;7.00;99.90;;;;;;5068076;28;20192;-75
2020/12/18 03:25:09;;;;;;;6.87;3.70;;;7.10;99.90;;;;;;5062261;28;20671;-77
2020/12/18 03:27:35;;;;;;;5.40;3.43;;;7.10;99.90;;;;;;5052191;28;20198;-78
2020/12/18 03:30:02;;;;;;;6.60;3.90;;;7.00;99.90;;;;;;5069946;28;20212;-77
2020/12/18 03:32:29;;;;;;;11.97;3.90;;;7.00;99.90;;;;;;5087800;28;20278;-75
2020/12/18 03:34:55;;;;;;;10.33;4.43;;;7.00;99.90;;;;;;5060593;28;20199;-77
2020/12/18 03:37:21;;;;;;;6.93;3.90;;;7.00;99.90;;;;;;5069087;28;20714;-77
2020/12/18 03:39:48;;;;;;;8.50;3.67;;;7.00;99.90;;;;;;5067370;28;20254;-77
2020/12/18 03:42:14;;;;;;;5.00;3.70;;;7.00;99.90;;;;;;5086627;28;20238;-76
2020/12/18 03:44:41;;;;;;;7.47;3.10;;;7.10;99.90;;;;;;5086288;28;20201;-77
2020/12/18 03:47:07;;;;;;;5.07;3.40;;;7.00;99.90;;;;;;5046939;28;20203;-77
2020/12/18 03:49:36;;;;;;;7.23;3.63;;;6.90;99.90;;;;;;5069678;28;20194;-77
2020/12/18 03:52:02;;;;;;;6.30;3.53;;;7.00;99.90;;;;;;5066755;28;20201;-77
2020/12/18 03:54:29;;;;;;;5.77;3.77;;;7.00;99.90;;;;;;5086249;28;20263;-77
2020/12/18 03:56:55;;;;;;;7.13;3.60;;;6.90;99.90;;;;;;5066928;28;20282;-76
2020/12/18 03:59:21;;;;;;;8.17;4.77;;;6.90;99.90;;;;;;5081865;28;20210;-78
2020/12/18 04:01:48;;;;;;;6.37;3.60;;;6.90;99.90;;;;;;5066138;28;20285;-76
2020/12/18 04:04:14;;;;;;;5.50;3.33;;;7.00;99.90;;;;;;5066061;28;20265;-77
2020/12/18 04:06:41;;;;;;;7.80;3.67;;;7.00;99.90;;;;;;5065064;28;20270;-76
2020/12/18 04:09:07;;;;;;;6.13;3.40;;;7.00;99.90;;;;;;5066443;28;20585;-78
2020/12/18 04:11:34;;;;;;;10.33;3.80;;;7.00;99.90;;;;;;5081657;28;22132;-76
2020/12/18 04:14:00;;;;;;;5.70;3.57;;;7.00;99.90;;;;;;5057150;28;20235;-75
2020/12/18 04:16:27;;;;;;;6.33;3.80;;;6.90;99.90;;;;;;5063127;28;20297;-75
2020/12/18 04:18:53;;;;;;;7.67;2.87;;;6.90;99.90;;;;;;5082663;28;20228;-77
2020/12/18 04:21:20;;;;;;;7.63;3.50;;;6.90;99.90;;;;;;5048453;28;20279;-76
2020/12/18 04:23:46;;;;;;;5.37;3.40;;;6.90;99.90;;;;;;5077588;28;20859;-76
2020/12/18 04:26:12;;;;;;;8.33;4.20;;;7.00;99.90;;;;;;5077267;28;20202;-77
2020/12/18 04:28:39;;;;;;;4.60;3.60;;;7.00;99.90;;;;;;5067892;28;20293;-78
2020/12/18 04:31:05;;;;;;;8.03;3.30;;;7.00;99.90;;;;;;5083065;28;20250;-77
2020/12/18 04:33:32;;;;;;;6.47;4.00;;;7.00;99.90;;;;;;5051932;28;20904;-77
2020/12/18 04:35:58;;;;;;;4.97;2.67;;;6.90;99.90;;;;;;5064552;28;21373;-77
2020/12/18 04:38:25;;;;;;;9.27;3.23;;;6.90;99.90;;;;;;5065533;28;20292;-78
2020/12/18 04:40:52;;;;;;;8.53;3.13;;;6.90;99.90;;;;;;5063725;28;20312;-78
2020/12/18 04:43:18;;;;;;;5.40;2.97;;;6.90;99.90;;;;;;5083564;28;20217;-77
2020/12/18 04:45:46;;;;;;;7.23;3.13;;;7.00;99.90;;;;;;5085857;28;20334;-77
2020/12/18 04:48:16;;;;;;;6.83;3.13;;;7.00;99.90;;;;;;5083316;28;20209;-76
2020/12/18 04:50:46;;;;;;;6.37;2.70;;;7.00;99.90;;;;;;5080546;28;20240;-76
2020/12/18 04:53:13;;;;;;;7.27;3.00;;;7.00;99.90;;;;;;5061309;28;20209;-75
2020/12/18 04:55:46;;;;;;;7.53;2.63;;;6.90;99.90;;;;;;5080793;28;20302;-77
2020/12/18 04:58:16;;;;;;;6.40;2.63;;;7.00;99.90;;;;;;5065597;28;20221;-77
2020/12/18 05:00:45;;;;;;;4.07;2.70;;;7.00;99.90;;;;;;5082799;28;20293;-76
2020/12/18 05:03:14;;;;;;;7.73;2.80;;;7.10;99.90;;;;;;5066500;28;20283;-75
2020/12/18 05:05:41;;;;;;;7.47;2.90;;;7.10;99.90;;;;;;5073690;28;20306;-77
2020/12/18 05:08:07;;;;;;;5.67;3.00;;;7.10;99.90;;;;;;5055248;28;20228;-76
2020/12/18 05:10:33;;;;;;;6.17;2.77;;;7.10;99.90;;;;;;5062840;28;20228;-77
2020/12/18 05:13:00;;;;;;;3.67;2.60;;;7.10;99.90;;;;;;5068272;28;20206;-77
2020/12/18 05:15:26;;;;;;;9.60;3.50;;;7.00;99.90;;;;;;5087542;28;20366;-76
2020/12/18 05:17:56;;;;;;;3.10;2.07;;;7.10;99.90;;;;;;5087517;28;20324;-77
2020/12/18 05:20:26;;;;;;;5.77;2.70;;;7.10;99.90;;;;;;5086799;28;20228;-76
2020/12/18 05:22:56;;;;;;;6.50;2.47;;;7.10;99.90;;;;;;5089288;28;20258;-76
2020/12/18 05:25:24;;;;;;;4.63;2.30;;;7.10;99.90;;;;;;5082629;28;20207;-77
2020/12/18 05:27:50;;;;;;;6.00;2.67;;;7.20;99.90;;;;;;5089377;28;20715;-76
2020/12/18 05:30:21;;;;;;;6.27;2.90;;;7.10;99.90;;;;;;5074762;28;20228;-76
2020/12/18 05:32:53;;;;;;;7.03;2.73;;;7.00;99.90;;;;;;5087602;28;20205;-76
2020/12/18 05:35:20;;;;;;;7.87;2.47;;;7.10;99.90;;;;;;5088427;28;20243;-76
2020/12/18 05:37:46;;;;;;;8.97;2.70;;;7.10;99.90;;;;;;5050902;28;20260;-77
2020/12/18 05:40:13;;;;;;;8.30;2.63;;;7.10;99.90;;;;;;5091134;28;20201;-79
2020/12/18 05:42:44;;;;;;;6.83;2.27;;;7.10;99.90;;;;;;5086174;28;20634;-76
2020/12/18 05:45:20;;;;;;;8.73;2.60;;;7.10;99.90;;;;;;5086990;28;20955;-76
2020/12/18 05:47:53;;;;;;;6.37;2.67;;;7.00;99.90;;;;;;5088871;28;20252;-75
2020/12/18 05:50:20;;;;;;;10.40;2.57;;;7.00;99.90;;;;;;5083359;28;20555;-76
2020/12/18 05:53:00;;;;;;;2.83;2.03;;;7.00;99.90;;;;;;5052834;28;20236;-76
2020/12/18 05:55:26;;;;;;;6.33;1.90;;;7.00;99.90;;;;;;5083154;28;20630;-76
2020/12/18 05:57:56;;;;;;;5.97;2.40;;;7.00;99.90;;;;;;5067304;28;20373;-76
2020/12/18 06:00:23;;;;;;;7.70;2.20;;;7.00;99.90;;;;;;5067411;28;20947;-77
2020/12/18 06:03:02;;;;;;;3.17;2.40;;;7.00;99.90;;;;;;5073275;28;20198;-77
2020/12/18 06:05:30;;;;;;;7.70;2.20;;;7.00;99.90;;;;;;5071912;28;20253;-77
2020/12/18 06:07:57;;;;;;;7.57;2.50;;;7.00;99.90;;;;;;5069386;28;20256;-77
2020/12/18 06:10:24;;;;;;;6.83;2.17;;;7.00;99.90;;;;;;5048623;28;20315;-76
2020/12/18 06:13:01;;;;;;;5.77;2.20;;;7.00;99.90;;;;;;5070370;28;20278;-76
2020/12/18 06:15:28;;;;;;;4.90;2.20;;;7.00;99.90;;;;;;5082344;28;20581;-77
2020/12/18 06:18:00;;;;;;;3.70;2.27;;;7.00;99.90;;;;;;5081919;28;20323;-76
2020/12/18 06:20:34;;;;;;;5.97;2.10;;;7.00;99.90;;;;;;5071404;28;20650;-76
2020/12/18 06:23:04;;;;;;;5.23;2.20;;;6.90;99.90;;;;;;5067775;28;20332;-75
2020/12/18 06:25:32;;;;;;;9.20;2.40;;;7.00;99.90;;;;;;5085313;28;20296;-76
2020/12/18 06:28:03;;;;;;;5.33;2.30;;;7.00;99.90;;;;;;5066538;28;20194;-76
2020/12/18 06:30:30;;;;;;;6.83;2.37;;;7.00;99.90;;;;;;5090245;28;20200;-76
2020/12/18 06:32:57;;;;;;;7.63;2.57;;;7.00;99.90;;;;;;5038319;28;20582;-76
2020/12/18 06:35:26;;;;;;;6.90;2.17;;;7.00;99.90;;;;;;5089090;28;20199;-76
2020/12/18 06:37:53;;;;;;;3.90;2.17;;;7.00;99.90;;;;;;5069704;28;20240;-76
2020/12/18 06:40:31;;;;;;;4.30;2.13;;;7.00;99.90;;;;;;5067608;28;20195;-76
2020/12/18 06:42:58;;;;;;;7.50;3.20;;;7.00;99.90;;;;;;5086347;28;20605;-76
2020/12/18 06:45:26;;;;;;;5.00;1.93;;;7.00;99.90;;;;;;5089388;28;20213;-76
2020/12/18 06:47:53;;;;;;;3.17;2.10;;;7.00;99.90;;;;;;5070774;28;20235;-76
2020/12/18 06:50:20;;;;;;;2.50;1.70;;;7.00;99.90;;;;;;5069076;28;20199;-76
2020/12/18 06:52:58;;;;;;;6.67;2.20;;;7.10;99.90;;;;;;5061210;28;20565;-76
2020/12/18 06:55:30;;;;;;;3.33;1.90;;;7.00;99.90;;;;;;5063519;28;20217;-76
2020/12/18 06:58:05;;;;;;;5.30;2.20;;;7.00;99.90;;;;;;5069421;28;20279;-77
2020/12/18 07:00:38;;;;;;;6.67;1.70;;;7.10;99.90;;;;;;5080514;28;20249;-76
2020/12/18 07:03:05;;;;;;;6.57;2.20;;;7.00;99.90;;;;;;5082644;28;20753;-76
2020/12/18 07:05:37;;;;;;;4.33;2.07;;;7.10;99.90;;;;;;5064478;28;20302;-75
2020/12/18 07:08:06;;;;;;;6.50;2.17;;;7.10;99.90;;;;;;5086280;28;20220;-76
2020/12/18 07:10:41;;;;;;;9.87;2.57;;;7.10;99.90;;;;;;5067044;28;20744;-75
2020/12/18 07:13:14;;;;;;;9.27;2.20;;;7.10;99.90;;;;;;5086038;28;20336;-76
2020/12/18 07:15:46;;;;;;;3.93;2.37;;;7.20;99.90;;;;;;5089035;28;20208;-76
2020/12/18 07:18:25;;;;;;;7.43;1.87;;;7.20;99.90;;;;;;5083174;28;20306;-76
2020/12/18 07:20:54;;;;;;;5.60;2.20;;;7.30;99.90;;;;;;5083151;28;20192;-76
2020/12/18 07:23:22;;;;;;;5.50;2.10;;;7.30;99.90;;;;;;5070605;28;20323;-77
2020/12/18 07:25:49;;;;;;;6.00;2.80;;;7.30;99.90;;;;;;5066843;28;20260;-76
2020/12/18 07:28:17;;;;;;;5.43;2.53;;;7.30;99.90;;;;;;5086427;28;20247;-75
2020/12/18 07:30:46;;;;;;;4.07;2.60;;;7.40;99.90;;;;;;5082943;28;20200;-76
2020/12/18 07:33:14;;;;;;;2.60;1.93;;;7.50;99.90;;;;;;5085581;28;20248;-75
2020/12/18 07:35:46;;;;;;;5.63;2.53;;;7.50;99.90;;;;;;5084210;28;20259;-76
2020/12/18 07:38:32;;;;;;;3.33;2.20;;;7.50;99.90;;;;;;5064974;28;20269;-75
2020/12/18 07:41:07;;;;;;;3.70;2.50;;;7.50;99.90;;;;;;5078265;28;20370;-75
2020/12/18 07:43:35;;;;;;;5.57;2.23;;;7.50;99.90;;;;;;5066181;28;20577;-75
2020/12/18 07:46:07;;;;;;;5.27;2.50;;;7.60;99.90;;;;;;5081732;28;20272;-75
2020/12/18 07:48:39;;;;;;;7.87;2.50;;;7.50;99.90;;;;;;5084549;28;20268;-75
2020/12/18 07:51:19;;;;;;;6.23;2.63;;;7.50;99.90;;;;;;5064602;28;20213;-75
2020/12/18 07:53:50;;;;;;;9.00;3.20;;;7.60;99.90;;;;;;5085284;28;20241;-75
2020/12/18 07:56:18;;;;;;;5.70;2.30;;;7.70;99.90;;;;;;5066714;28;20237;-75
2020/12/18 07:58:55;;;;;;;6.47;2.57;;;7.70;99.90;;;;;;5080455;28;20269;-75
2020/12/18 08:01:24;;;;;;;5.57;2.33;;;7.70;99.90;;;;;;5084013;28;20206;-76
2020/12/18 08:03:54;;;;;;;6.57;2.70;;;7.70;99.90;;;;;;5086833;28;20547;-75
2020/12/18 08:06:23;;;;;;;4.10;2.87;;;7.70;99.90;;;;;;5052374;28;20667;-75
2020/12/18 08:08:53;;;;;;;4.13;2.37;;;7.80;99.90;;;;;;5086116;28;20224;-76
2020/12/18 08:11:21;;;;;;;6.40;2.93;;;7.80;99.90;;;;;;5082867;28;20207;-75
2020/12/18 08:13:49;;;;;;;3.97;2.33;;;7.90;99.90;;;;;;5052167;28;20220;-76
2020/12/18 08:16:21;;;;;;;4.13;2.67;;;7.90;99.90;;;;;;5083288;28;20818;-77
2020/12/18 08:18:58;;;;;;;6.60;3.00;;;7.90;99.90;;;;;;5067460;28;20722;-77
2020/12/18 08:21:31;;;;;;;6.60;2.73;;;7.90;99.90;;;;;;5061416;28;20195;-76
2020/12/18 08:24:03;;;;;;;6.43;2.63;;;7.90;99.90;;;;;;5064584;28;20649;-75
2020/12/18 08:26:40;;;;;;;4.70;2.83;;;8.00;99.90;;;;;;5075097;28;20197;-79
2020/12/18 08:29:07;;;;;;;9.97;2.70;;;8.00;99.90;;;;;;5084493;28;20686;-79
2020/12/18 08:31:41;;;;;;;6.17;2.53;;;8.10;99.90;;;;;;5067776;28;20515;-75
2020/12/18 08:34:10;;;;;;;9.40;2.50;;;8.20;99.90;;;;;;5086448;28;20206;-76
2020/12/18 08:36:46;;;;;;;8.60;3.03;;;8.20;99.90;;;;;;5066724;28;20284;-76
2020/12/18 08:39:14;;;;;;;7.03;2.97;;;8.20;99.90;;;;;;5085137;28;20851;-77
2020/12/18 08:41:53;;;;;;;9.03;2.77;;;8.30;99.90;;;;;;5051281;28;20241;-76
2020/12/18 08:44:21;;;;;;;8.10;3.30;;;8.30;99.90;;;;;;5056194;28;20247;-79
2020/12/18 08:46:49;;;;;;;5.87;2.60;;;8.30;99.90;;;;;;5066372;28;20198;-75
2020/12/18 08:49:23;;;;;;;4.27;2.70;;;8.40;99.90;;;;;;5081748;28;20227;-76
2020/12/18 08:51:51;;;;;;;4.43;2.63;;;8.40;99.90;;;;;;5064228;28;20215;-75
2020/12/18 08:54:32;;;;;;;6.43;2.83;;;8.40;99.90;;;;;;5064100;28;20347;-76
2020/12/18 08:57:22;;;;;;;9.40;3.10;;;8.50;99.90;;;;;;5066335;28;20208;-77
2020/12/18 09:00:05;;;;;;;5.07;2.80;;;8.50;99.90;;;;;;5067670;28;20254;-76
2020/12/18 09:02:33;;;;;;;5.13;2.73;;;8.60;99.90;;;;;;5062747;28;20228;-76
2020/12/18 09:05:21;;;;;;;4.67;2.40;;;8.60;99.90;;;;;;5077517;28;20210;-77
2020/12/18 09:07:58;;;;;;;3.70;2.57;;;8.60;99.90;;;;;;5084163;28;20203;-77
2020/12/18 09:10:41;;;;;;;3.83;2.17;;;8.80;99.90;;;;;;5085447;28;20542;-76
2020/12/18 09:13:19;;;;;;;6.53;3.40;;;9.00;99.90;;;;;;5082789;28;20303;-76
2020/12/18 09:15:48;;;;;;;6.07;2.30;;;9.10;99.90;;;;;;5069408;28;20299;-78
2020/12/18 09:18:22;;;;;;;5.10;2.40;;;9.20;99.90;;;;;;5064360;28;20285;-78
2020/12/18 09:20:49;;;;;;;7.23;2.43;;;9.30;99.90;;;;;;5084756;28;20545;-79
2020/12/18 09:23:32;;;;;;;3.60;2.70;;;9.30;99.90;;;;;;5050107;28;20252;-78
2020/12/18 09:26:01;;;;;;;4.70;2.60;;;9.50;99.90;;;;;;5068288;28;20213;-77
2020/12/18 09:28:35;;;;;;;5.40;2.37;;;9.50;99.90;;;;;;5053100;28;20248;-77
2020/12/18 09:31:02;;;;;;;5.07;2.20;;;9.50;99.90;;;;;;5063969;28;20231;-76
2020/12/18 09:33:31;;;;;;;4.07;2.10;;;9.50;99.90;;;;;;5079832;28;20705;-75
2020/12/18 09:36:02;;;;;;;6.60;2.20;;;9.60;99.90;;;;;;5084700;28;20209;-75
2020/12/18 09:38:45;;;;;;;6.10;2.10;;;9.80;99.90;;;;;;5078348;28;20727;-75
2020/12/18 09:41:12;;;;;;;3.37;2.00;;;9.80;99.90;;;;;;5082406;28;20226;-74
2020/12/18 09:43:40;;;;;;;6.23;2.27;;;9.90;99.90;;;;;;5060082;28;20194;-75
2020/12/18 09:46:11;;;;;;;6.27;2.30;;;9.90;99.90;;;;;;5078190;28;20970;-75
2020/12/18 09:48:44;;;;;;;3.83;2.53;;;9.90;99.90;;;;;;5080216;28;20516;-73
2020/12/18 09:51:11;;;;;;;4.13;2.10;;;10.00;99.90;;;;;;5064717;28;20344;-75
2020/12/18 09:53:38;;;;;;;8.57;2.67;;;10.00;99.90;;;;;;5062000;28;20972;-75
2020/12/18 09:56:10;;;;;;;4.90;2.70;;;10.10;99.90;;;;;;5064011;28;20246;-75
2020/12/18 09:58:37;;;;;;;4.80;2.37;;;10.10;99.90;;;;;;5057777;28;20249;-75
2020/12/18 10:01:04;;;;;;;4.93;2.30;;;10.30;99.90;;;;;;5062757;28;20296;-74
2020/12/18 10:03:31;;;;;;;5.68;2.63;;;10.40;99.90;;;;;;5065494;28;20452;-78
2020/12/18 10:05:59;;;;;;;7.15;3.03;;;10.50;99.90;;;;;;5066509;28;20540;-76
2020/12/18 10:08:25;;;;;;;8.03;2.50;;;10.50;99.90;;;;;;5071010;28;20349;-76
2020/12/18 10:10:52;;;;;;;4.40;2.20;;;10.60;99.90;;;;;;5067752;28;20222;-77
2020/12/18 10:13:18;;;;;;;7.37;2.27;;;10.50;99.90;;;;;;5053991;28;20209;-77
2020/12/18 10:15:45;;;;;;;4.47;2.47;;;10.70;99.90;;;;;;5037576;28;20217;-77
2020/12/18 10:18:11;;;;;;;9.37;2.90;;;10.60;99.90;;;;;;5069547;28;20286;-77
2020/12/18 10:20:38;;;;;;;3.33;1.93;;;10.40;99.90;;;;;;5040189;28;20287;-77
2020/12/18 10:23:04;;;;;;;8.43;2.97;;;10.50;99.90;;;;;;5045571;28;20236;-76
2020/12/18 10:25:30;;;;;;;4.37;2.53;;;10.40;99.90;;;;;;5051577;28;20540;-77
2020/12/18 10:27:57;;;;;;;5.40;2.13;;;10.40;99.90;;;;;;5047488;28;20203;-78
2020/12/18 10:30:23;;;;;;;8.80;3.30;;;10.40;99.90;;;;;;5046334;28;20587;-76
2020/12/18 10:32:50;;;;;;;6.33;2.60;;;10.40;99.90;;;;;;5049874;28;20252;-76
2020/12/18 10:35:17;;;;;;;5.50;2.50;;;10.30;99.90;;;;;;5035477;28;20221;-77
2020/12/18 10:37:46;;;;;;;3.57;2.60;;;10.30;99.90;;;;;;5041947;28;20268;-75
2020/12/18 10:40:14;;;;;;;5.93;2.70;;;10.40;99.90;;;;;;5042881;28;20238;-75
2020/12/18 10:42:41;;;;;;;6.27;2.67;;;10.40;99.90;;;;;;5045350;28;20276;-75
2020/12/18 10:45:08;;;;;;;3.83;2.00;;;10.60;99.90;;;;;;5065485;28;20439;-76
2020/12/18 10:47:34;;;;;;;4.73;2.67;;;10.60;99.90;;;;;;5043835;28;20203;-76
2020/12/18 10:50:00;;;;;;;5.33;2.80;;;10.60;99.90;;;;;;5031004;28;20370;-76
2020/12/18 10:52:27;;;;;;;5.53;2.33;;;10.80;99.90;;;;;;5060147;28;20200;-77
2020/12/18 10:54:53;;;;;;;4.03;2.17;;;10.60;99.90;;;;;;5061335;28;20277;-76
2020/12/18 10:57:19;;;;;;;3.73;1.97;;;10.70;99.90;;;;;;5042972;28;20211;-75
2020/12/18 10:59:47;;;;;;;3.50;2.33;;;10.70;99.90;;;;;;5061915;28;20217;-76
2020/12/18 11:02:13;;;;;;;5.30;2.50;;;10.70;99.90;;;;;;5048057;28;20195;-76
2020/12/18 11:04:39;;;;;;;4.47;2.73;;;10.80;99.90;;;;;;5043386;28;20213;-76
2020/12/18 11:07:06;;;;;;;6.70;2.17;;;10.90;99.90;;;;;;5060404;28;20207;-76
2020/12/18 11:09:32;;;;;;;4.33;2.07;;;10.80;99.90;;;;;;5061240;28;20288;-76
2020/12/18 11:11:59;;;;;;;4.80;2.00;;;10.90;99.90;;;;;;5045237;28;20624;-76
2020/12/18 11:14:26;;;;;;;5.20;2.07;;;10.90;99.90;;;;;;5046196;28;20282;-75
2020/12/18 11:16:56;;;;;;;6.87;2.00;;;10.90;99.90;;;;;;5051565;28;24095;-76
2020/12/18 11:19:26;;;;;;;5.20;2.20;;;10.90;99.90;;;;;;5083060;28;20221;-76
2020/12/18 11:21:52;;;;;;;4.20;2.00;;;11.00;99.90;;;;;;5061353;28;20674;-78
2020/12/18 11:24:18;;;;;;;7.73;2.00;;;10.90;99.90;;;;;;5077753;28;20290;-78
2020/12/18 11:26:52;;;;;;;4.33;2.00;;;11.10;99.90;;;;;;5061708;28;20197;-77
2020/12/18 11:29:20;;;;;;;3.57;1.47;;;11.10;99.90;;;;;;5077718;28;20291;-76
2020/12/18 11:31:48;;;;;;;5.47;1.70;;;11.20;99.90;;;;;;5062327;28;20244;-77
2020/12/18 11:34:18;;;;;;;6.90;2.07;;;11.20;99.90;;;;;;5066930;28;20209;-78
2020/12/18 11:36:45;;;;;;;3.53;1.90;;;11.30;99.90;;;;;;5061974;28;20205;-76
2020/12/18 11:39:11;;;;;;;4.43;1.70;;;11.30;99.90;;;;;;5078770;28;20294;-76
2020/12/18 11:41:38;;;;;;;6.13;1.93;;;11.20;99.90;;;;;;5065761;28;20850;-76
2020/12/18 11:44:04;;;;;;;3.20;1.90;;;11.30;99.90;;;;;;5049426;28;20198;-77
2020/12/18 11:46:31;;;;;;;13.03;2.83;;;11.70;99.90;;;;;;5059996;28;20569;-76
2020/12/18 11:48:57;;;;;;;2.87;1.77;;;11.60;99.90;;;;;;5043792;28;20211;-76
2020/12/18 11:51:29;;;;;;;4.90;2.03;;;12.00;99.90;;;;;;5047562;28;20198;-76
2020/12/18 11:53:56;;;;;;;4.33;1.70;;;11.80;99.90;;;;;;5080695;28;20209;-75
2020/12/18 11:56:22;;;;;;;2.73;1.83;;;12.00;99.90;;;;;;5077569;28;20271;-76
2020/12/18 11:58:49;;;;;;;4.00;1.50;;;11.90;99.90;;;;;;5080570;28;20210;-77
2020/12/18 12:01:21;;;;;;;2.40;1.77;;;12.00;99.90;;;;;;5079765;28;20198;-76
2020/12/18 12:03:49;;;;;;;5.63;2.00;;;12.20;99.90;;;;;;5064173;28;20239;-77
2020/12/18 12:06:16;;;;;;;5.20;2.10;;;12.20;99.90;;;;;;5084352;28;20243;-79
2020/12/18 12:08:42;;;;;;;2.03;1.20;;;12.00;99.90;;;;;;5079982;28;20233;-75
2020/12/18 12:11:09;;;;;;;3.27;1.33;;;12.00;99.90;;;;;;5070751;28;20197;-76
2020/12/18 12:13:35;;;;;;;5.70;1.50;;;11.80;99.90;;;;;;5081741;28;20623;-75
2020/12/18 12:16:02;;;;;;;4.03;1.47;;;12.00;99.90;;;;;;5079078;28;20217;-75
2020/12/18 12:18:28;;;;;;;2.20;1.47;;;12.20;99.90;;;;;;5066657;28;20842;-77
2020/12/18 12:20:54;;;;;;;2.10;1.33;;;12.00;99.90;;;;;;5059134;28;20230;-76
2020/12/18 12:23:21;;;;;;;4.67;1.30;;;11.90;99.90;;;;;;5062282;28;20285;-76
2020/12/18 12:25:48;;;;;;;4.47;1.20;;;11.80;99.90;;;;;;5072668;28;20654;-75
2020/12/18 12:28:15;;;;;;;3.57;1.70;;;12.00;99.90;;;;;;5060198;28;20247;-75
2020/12/18 12:30:41;;;;;;;2.10;1.43;;;12.20;99.90;;;;;;5062979;28;20459;-78
2020/12/18 12:33:07;;;;;;;2.60;1.23;;;12.30;99.90;;;;;;5060629;28;20202;-77
2020/12/18 12:35:34;;;;;;;2.87;1.43;;;12.30;99.90;;;;;;5059821;28;20210;-75
2020/12/18 12:38:00;;;;;;;5.00;1.37;;;12.60;99.90;;;;;;5047150;28;20217;-76
2020/12/18 12:40:26;;;;;;;3.70;1.17;;;12.90;99.90;;;;;;5057489;28;20827;-75
2020/12/18 12:42:53;;;;;;;1.63;1.00;;;12.80;99.90;;;;;;5078097;28;20278;-75
2020/12/18 12:45:19;;;;;;;5.93;1.10;;;12.70;99.90;;;;;;5077772;28;20317;-78
2020/12/18 12:47:45;;;;;;;3.03;1.17;;;12.90;99.90;;;;;;5059090;28;21265;-75
2020/12/18 12:50:11;;;;;;;4.50;1.10;;;12.90;99.90;;;;;;5058622;28;20675;-75
2020/12/18 12:52:38;;;;;;;3.00;1.03;;;13.10;99.90;;;;;;5079477;28;20217;-75
2020/12/18 12:55:04;;;;;;;1.57;1.00;;;13.00;99.90;;;;;;5057942;28;20217;-75
2020/12/18 12:57:31;;;;;;;1.30;0.90;;;12.80;99.90;;;;;;5050969;28;20210;-75
2020/12/18 12:59:57;;;;;;;4.33;1.27;;;12.80;99.90;;;;;;5046042;28;20301;-76